createdAt,value
2019-05-02T00:03:35.978Z,92900.72
2019-05-02T00:13:40.178Z,92900.02
2019-05-02T00:23:42.781Z,92897.41
2019-05-02T00:33:47.472Z,92895.55
2019-05-02T00:43:50.770Z,92835.39
2019-05-02T00:53:54.978Z,92909.08
2019-05-02T01:04:05.000Z,92921.92
2019-05-02T01:14:11.296Z,92917.73
2019-05-02T01:24:14.427Z,92908.73
2019-05-02T01:34:19.940Z,92898.39
2019-05-02T01:44:24.204Z,92896.28
2019-05-02T01:54:27.063Z,92905.45
2019-05-02T02:04:30.315Z,92895.81
2019-05-02T02:14:32.870Z,92902.13
2019-05-02T02:24:40.312Z,92904.41
2019-05-02T02:34:45.003Z,92903.67
2019-05-02T02:44:50.418Z,92903.97
2019-05-02T02:54:54.638Z,92898.22
2019-05-02T03:05:04.077Z,92917.83
2019-05-02T03:15:13.574Z,92914.80
2019-05-02T03:25:27.003Z,92919.61
2019-05-02T03:35:40.634Z,92928.83
2019-05-02T03:45:32.285Z,92935.54
2019-05-02T03:55:36.156Z,92946.98
2019-05-02T04:05:40.606Z,92954.36
2019-05-02T04:15:44.378Z,92970.22
2019-05-02T04:25:49.293Z,92977.88
2019-05-02T04:35:51.981Z,92979.63
2019-05-02T04:45:59.731Z,92999.88
2019-05-02T04:56:06.659Z,93002.98
2019-05-02T05:06:10.767Z,93006.62
2019-05-02T05:16:15.528Z,93007.81
2019-05-02T05:26:17.482Z,93008.63
2019-05-02T05:36:29.233Z,93013.02
2019-05-02T05:46:28.056Z,93019.41
2019-05-02T05:56:32.460Z,93029.73
2019-05-02T06:06:37.789Z,93037.88
2019-05-02T06:16:41.242Z,93050.52
2019-05-02T06:26:44.796Z,93051.73
2019-05-02T06:36:49.427Z,93047.77
2019-05-02T06:46:52.001Z,93058.56
2019-05-02T06:56:55.555Z,93058.76
2019-05-02T07:06:59.995Z,93063.14
2019-05-02T07:17:17.608Z,93060.19
2019-05-02T07:27:21.138Z,93067.02
2019-05-02T07:37:23.697Z,93079.34
2019-05-02T07:47:28.831Z,93075.05
2019-05-02T07:57:32.413Z,93072.31
2019-05-02T08:07:38.002Z,93073.69
2019-05-02T08:17:40.679Z,93077.77
2019-05-02T08:27:49.589Z,93077.20
2019-05-02T08:37:52.197Z,93078.56
2019-05-02T08:47:55.481Z,93079.58
2019-05-02T08:58:00.370Z,93082.73
2019-05-02T09:08:04.654Z,93076.53
2019-05-02T09:18:07.235Z,93077.94
2019-05-02T09:28:12.515Z,93067.18
2019-05-02T09:38:16.397Z,93071.11
2019-05-02T09:48:22.850Z,93070.70
2019-05-02T09:58:25.767Z,93068.36
2019-05-02T10:08:28.460Z,93048.27
2019-05-02T10:18:32.919Z,93052.38
2019-05-02T10:28:35.800Z,93042.52
2019-05-02T10:38:39.387Z,93040.69
2019-05-02T10:48:43.995Z,93016.16
2019-05-02T10:58:46.827Z,93013.17
2019-05-02T11:08:49.448Z,93012.14
2019-05-02T11:18:58.092Z,93020.09
2019-05-02T11:29:02.980Z,93017.52
2019-05-02T11:39:19.229Z,93023.84
2019-05-02T11:49:15.084Z,93026.59
2019-05-02T11:59:22.710Z,93010.11
2019-05-02T12:09:24.376Z,92994.39
2019-05-02T12:19:26.936Z,92995.30
2019-05-02T12:29:29.593Z,92985.65
2019-05-02T12:39:33.151Z,92991.95
2019-05-02T12:49:43.409Z,92987.83
2019-05-02T12:59:46.651Z,92987.83
2019-05-02T13:09:49.820Z,92977.91
2019-05-02T13:20:00.623Z,92980.39
2019-05-02T13:30:03.387Z,92975.95
2019-05-02T13:40:22.614Z,92963.73
2019-05-02T13:50:27.096Z,92963.73
2019-05-02T14:00:38.621Z,92967.33
2019-05-02T14:10:44.681Z,92960.55
2019-05-02T14:20:48.038Z,92957.17
2019-05-02T14:30:52.371Z,92939.84
2019-05-02T14:41:03.078Z,92949.92
2019-05-02T14:51:06.643Z,92943.08
2019-05-02T15:01:09.925Z,92955.19
2019-05-02T15:11:16.017Z,92955.33
2019-05-02T15:21:22.874Z,92958.03
2019-05-02T15:31:33.734Z,92974.85
2019-05-02T15:41:39.861Z,92969.29
2019-05-02T15:51:43.647Z,92973.41
2019-05-02T16:01:52.507Z,92973.16
2019-05-02T16:11:56.879Z,92969.62
2019-05-02T16:32:37.892Z,92978.80
2019-05-02T16:42:43.085Z,92980.78
2019-05-02T16:52:47.321Z,93000.67
2019-05-02T17:02:50.398Z,93002.53
2019-05-02T17:12:58.651Z,93013.55
2019-05-02T17:23:06.995Z,93025.87
2019-05-02T17:33:12.025Z,93035.86
2019-05-02T17:43:15.725Z,93041.20
2019-05-02T17:53:18.530Z,93039.95
2019-05-02T18:03:24.179Z,93045.70
2019-05-02T18:13:29.102Z,93046.32
2019-05-02T18:23:32.983Z,93062.98
2019-05-02T18:33:41.325Z,93069.66
2019-05-02T18:43:45.169Z,93081.20
2019-05-02T18:53:47.920Z,93090.02
2019-05-02T19:03:56.247Z,93104.25
2019-05-02T19:13:57.953Z,93109.89
2019-05-02T19:24:02.313Z,93116.00
2019-05-02T19:34:06.178Z,93120.23
2019-05-02T19:44:09.065Z,93117.54
2019-05-02T19:54:12.593Z,93121.98
2019-05-02T20:04:19.217Z,93126.17
2019-05-02T20:14:22.525Z,93128.78
2019-05-02T20:24:29.052Z,93128.45
2019-05-02T20:34:32.997Z,93116.34
2019-05-02T20:44:37.959Z,93113.20
2019-05-02T20:54:42.666Z,93106.44
2019-05-02T21:04:45.605Z,93105.98
2019-05-02T21:14:51.986Z,93105.32
2019-05-02T21:24:55.758Z,93113.18
2019-05-02T21:35:02.637Z,93119.97
2019-05-02T21:45:08.687Z,93125.30
2019-05-02T21:55:14.962Z,93135.33
2019-05-02T22:05:17.582Z,93139.99
2019-05-02T22:15:21.982Z,93138.94
2019-05-02T22:25:27.689Z,93142.86
2019-05-02T22:35:31.178Z,93146.18
2019-05-02T22:45:35.603Z,93150.27
2019-05-02T22:55:38.153Z,93151.70
2019-05-02T23:05:42.166Z,93143.72
2019-05-02T23:15:45.046Z,93130.18
2019-05-02T23:36:23.893Z,93123.13
2019-05-02T23:46:26.648Z,93135.97
2019-05-02T23:56:32.277Z,93130.95
